Time;durP1;ratioP1;P1;durP2;ratioP2;P2;SDS_P1;SDS_P2;PMS_P1;PMS_P2;Temp;Humidity;BMP_temperature;BMP_pressure;BME280_temperature;BME280_humidity;BME280_pressure;Samples;Min_cycle;Max_cycle;Signal;HPM_P1;HPM_P2
2022/08/15 00:01:18;;;;;;;;;9.67;9.67;;;;;24.24;100.00;100111.59;5017177;28;45562;-73
2022/08/15 00:03:47;;;;;;;;;12.00;9.67;;;;;24.18;100.00;100102.47;5030761;28;45726;-73
2022/08/15 00:06:17;;;;;;;;;10.33;10.33;;;;;24.23;100.00;100107.13;5013187;28;46070;-80
2022/08/15 00:08:47;;;;;;;;;9.67;8.67;;;;;24.22;100.00;100105.47;5026650;28;45728;-73
2022/08/15 00:11:20;;;;;;;;;10.00;8.00;;;;;24.21;100.00;100106.63;5033039;28;45453;-80
2022/08/15 00:13:53;;;;;;;;;11.67;10.67;;;;;24.21;100.00;100101.03;5032888;28;45533;-74
2022/08/15 00:16:19;;;;;;;;;11.67;10.67;;;;;24.17;100.00;100112.00;5031181;28;46872;-75
2022/08/15 00:18:47;;;;;;;;;12.00;12.00;;;;;24.18;100.00;100108.09;5018871;28;45507;-81
2022/08/15 00:21:17;;;;;;;;;8.33;8.33;;;;;24.19;100.00;100109.72;5021857;28;45839;-79
2022/08/15 00:23:43;;;;;;;;;11.00;8.67;;;;;24.15;100.00;100105.91;5031054;28;45364;-79
2022/08/15 00:26:10;;;;;;;;;8.67;7.33;;;;;24.07;100.00;100096.28;5032519;28;47329;-74
2022/08/15 00:28:36;;;;;;;;;11.67;11.67;;;;;24.10;100.00;100101.25;5031112;28;45849;-74
2022/08/15 00:31:05;;;;;;;;;10.33;10.00;;;;;24.07;100.00;100099.09;5031986;28;45438;-79
2022/08/15 00:33:31;;;;;;;;;14.67;9.67;;;;;24.08;100.00;100109.13;5046439;28;46233;-74
2022/08/15 00:35:58;;;;;;;;;12.67;10.67;;;;;23.96;100.00;100097.66;5030130;28;48376;-78
2022/08/15 00:38:27;;;;;;;;;12.67;11.33;;;;;24.08;100.00;100103.53;5019885;28;45876;-79
2022/08/15 00:43:48;;;;;;;;;13.00;11.33;;;;;24.07;100.00;100096.28;5030803;28;45703;-71
2022/08/15 00:46:16;;;;;;;;;18.00;14.67;;;;;24.06;100.00;100105.00;5030803;28;45915;-80
2022/08/15 00:48:41;;;;;;;;;16.67;13.00;;;;;23.96;100.00;100092.06;5031713;28;45333;-79
2022/08/15 00:51:33;;;;;;;;;18.67;14.33;;;;;23.90;100.00;100091.34;5032886;28;45382;-79
2022/08/15 00:54:24;;;;;;;;;13.67;13.67;;;;;23.88;100.00;100092.81;5012607;28;46880;-79
2022/08/15 00:56:55;;;;;;;;;14.33;11.67;;;;;23.82;100.00;100099.63;5025542;28;46429;-79
2022/08/15 00:59:28;;;;;;;;;15.00;12.33;;;;;23.77;100.00;100094.97;5012472;28;45583;-79
2022/08/15 01:01:56;;;;;;;;;14.00;12.67;;;;;23.71;100.00;100104.63;5013007;28;45720;-74
2022/08/15 01:04:21;;;;;;;;;16.33;15.33;;;;;23.59;100.00;100099.53;5010589;28;45929;-73
2022/08/15 01:06:47;;;;;;;;;13.00;13.00;;;;;23.58;100.00;100103.50;5011582;28;46277;-73
2022/08/15 01:09:15;;;;;;;;;13.67;12.00;;;;;23.53;100.00;100109.19;5013168;28;45762;-71
2022/08/15 01:12:10;;;;;;;;;17.67;12.67;;;;;23.47;100.00;100102.06;5021240;28;45432;-73
2022/08/15 01:14:38;;;;;;;;;17.00;15.00;;;;;23.43;100.00;100102.69;5006305;28;45616;-71
2022/08/15 01:17:06;;;;;;;;;16.33;15.33;;;;;23.30;100.00;100086.72;5012295;28;45745;-72
2022/08/15 01:19:56;;;;;;;;;13.67;13.67;;;;;23.35;100.00;100108.16;4999102;28;45782;-72
2022/08/15 01:22:41;;;;;;;;;15.33;13.67;;;;;23.30;100.00;100106.31;5011567;28;45667;-73
2022/08/15 01:25:15;;;;;;;;;12.67;12.67;;;;;23.24;100.00;100107.53;5011755;28;45359;-73
2022/08/15 01:27:49;;;;;;;;;10.67;10.67;;;;;23.18;100.00;100112.41;5011136;28;47651;-72
2022/08/15 01:30:19;;;;;;;;;13.67;12.67;;;;;23.15;100.00;100109.41;5014770;28;45807;-73
2022/08/15 01:32:46;;;;;;;;;17.33;14.67;;;;;23.07;100.00;100113.72;5015350;28;45822;-73
2022/08/15 01:35:13;;;;;;;;;15.33;13.33;;;;;22.97;100.00;100109.13;5027979;28;45349;-73
2022/08/15 01:37:39;;;;;;;;;15.33;15.33;;;;;22.86;100.00;100102.06;5015019;28;45854;-72
2022/08/15 01:40:36;;;;;;;;;18.67;16.67;;;;;22.85;100.00;100103.22;5029833;28;45780;-74
2022/08/15 01:43:04;;;;;;;;;20.33;16.00;;;;;22.87;100.00;100104.53;5034145;28;45531;-71
2022/08/15 01:45:34;;;;;;;;;13.00;13.00;;;;;22.84;100.00;100102.38;5015406;28;45641;-75
2022/08/15 01:48:27;;;;;;;;;14.67;14.67;;;;;22.81;100.00;100107.75;5027335;28;46631;-72
2022/08/15 01:51:00;;;;;;;;;17.33;16.00;;;;;22.77;100.00;100109.50;5026395;28;45774;-72
2022/08/15 01:53:32;;;;;;;;;17.33;15.67;;;;;22.71;100.00;100103.16;5028280;28;45584;-71
2022/08/15 01:56:35;;;;;;;;;14.33;13.00;;;;;22.68;100.00;100104.63;5013690;28;46219;-72
2022/08/15 01:59:04;;;;;;;;;13.33;13.33;;;;;22.64;100.00;100106.34;4945360;28;46816;-73
2022/08/15 02:01:44;;;;;;;;;20.33;17.67;;;;;22.59;100.00;100111.19;4998588;28;45368;-73
2022/08/15 02:04:12;;;;;;;;;13.67;13.67;;;;;22.55;100.00;100100.63;5027924;28;45868;-74
2022/08/15 02:06:40;;;;;;;;;17.33;14.33;;;;;22.53;100.00;100104.84;5033365;28;46006;-73
2022/08/15 02:09:08;;;;;;;;;16.67;15.33;;;;;22.49;100.00;100103.84;5033947;28;45660;-73
2022/08/15 02:11:35;;;;;;;;;19.33;17.33;;;;;22.45;100.00;100100.81;5025551;28;45537;-75
2022/08/15 02:14:01;;;;;;;;;17.00;15.67;;;;;22.45;100.00;100099.97;5016433;28;45511;-73
2022/08/15 02:16:33;;;;;;;;;18.67;18.67;;;;;22.45;100.00;100099.97;5034317;28;45510;-73
2022/08/15 02:18:59;;;;;;;;;15.67;15.67;;;;;22.35;100.00;100087.84;5033868;28;45759;-73
2022/08/15 02:21:25;;;;;;;;;16.33;14.67;;;;;22.42;100.00;100092.22;5033915;28;45420;-73
2022/08/15 02:23:51;;;;;;;;;16.00;14.67;;;;;22.37;100.00;100093.13;5034459;28;45479;-73
2022/08/15 02:26:16;;;;;;;;;15.67;14.33;;;;;22.37;100.00;100091.16;5024938;28;45447;-73
2022/08/15 02:28:43;;;;;;;;;21.00;17.00;;;;;22.35;100.00;100087.84;5013877;28;45838;-73
2022/08/15 02:31:15;;;;;;;;;15.00;14.33;;;;;22.34;100.00;100094.56;5015364;28;45497;-72
2022/08/15 02:33:44;;;;;;;;;17.00;16.00;;;;;22.30;100.00;100089.84;5013669;28;45530;-72
2022/08/15 02:36:09;;;;;;;;;17.67;16.33;;;;;22.29;100.00;100088.19;5013973;28;46025;-73
2022/08/15 02:38:35;;;;;;;;;19.67;19.00;;;;;22.26;100.00;100084.06;5013336;28;45531;-72
2022/08/15 02:41:01;;;;;;;;;16.33;16.33;;;;;22.26;100.00;100080.41;5020728;28;45402;-73
2022/08/15 02:43:27;;;;;;;;;16.33;16.33;;;;;22.23;100.00;100076.28;5020949;28;45733;-72
2022/08/15 02:45:59;;;;;;;;;16.00;15.33;;;;;22.20;100.00;100082.44;5032214;28;45777;-72
2022/08/15 02:48:24;;;;;;;;;16.00;14.33;;;;;22.09;100.00;100073.41;5014185;28;45740;-71
2022/08/15 02:50:50;;;;;;;;;16.67;16.67;;;;;22.12;100.00;100083.97;5017044;28;45665;-73
2022/08/15 02:53:18;;;;;;;;;15.67;15.67;;;;;22.08;100.00;100070.91;5014468;28;45708;-72
2022/08/15 02:55:46;;;;;;;;;20.33;19.00;;;;;22.05;100.00;100072.34;5012759;28;47354;-72
2022/08/15 02:58:12;;;;;;;;;19.00;19.00;;;;;22.03;100.00;100069.84;5012398;28;47241;-72
2022/08/15 03:00:40;;;;;;;;;21.00;19.00;;;;;22.00;100.00;100073.25;5024055;28;45782;-74
2022/08/15 03:03:10;;;;;;;;;18.67;18.00;;;;;21.93;100.00;100061.66;5015991;28;45390;-73
2022/08/15 03:05:40;;;;;;;;;19.00;17.33;;;;;21.86;100.00;100058.41;5013535;28;45773;-71
2022/08/15 03:08:06;;;;;;;;;19.67;16.33;;;;;21.89;100.00;100057.81;5012378;28;46061;-71
2022/08/15 03:10:33;;;;;;;;;20.67;17.67;;;;;21.89;100.00;100063.38;5013038;28;45566;-73
2022/08/15 03:13:09;;;;;;;;;15.00;15.00;;;;;21.96;100.00;100063.00;5014518;28;45431;-73
2022/08/15 03:15:44;;;;;;;;;14.33;14.33;;;;;21.96;100.00;100066.63;5014313;28;45758;-72
2022/08/15 03:18:11;;;;;;;;;18.33;17.00;;;;;21.90;100.00;100053.03;5013460;28;45898;-72
2022/08/15 03:20:37;;;;;;;;;18.00;18.00;;;;;21.90;100.00;100076.22;5011997;28;45771;-72
2022/08/15 03:23:04;;;;;;;;;19.67;18.67;;;;;21.93;100.00;100075.63;5014315;28;45852;-73
2022/08/15 03:25:30;;;;;;;;;19.67;17.67;;;;;22.00;100.00;100067.66;5012363;28;45990;-74
2022/08/15 03:27:57;;;;;;;;;18.33;15.33;;;;;22.08;100.00;100065.34;5013320;28;45620;-71
2022/08/15 03:30:23;;;;;;;;;17.00;16.67;;;;;22.17;100.00;100067.16;5019590;28;45960;-72
2022/08/15 03:32:55;;;;;;;;;22.00;18.00;;;;;22.20;100.00;100071.28;5029500;28;45724;-75
2022/08/15 03:35:27;;;;;;;;;17.67;16.67;;;;;22.25;100.00;100064.81;5012333;28;45606;-72
2022/08/15 03:37:53;;;;;;;;;16.33;16.00;;;;;22.25;100.00;100071.22;5011053;28;48045;-73
2022/08/15 03:40:19;;;;;;;;;17.33;15.00;;;;;22.36;100.00;100061.53;5012641;28;45780;-73
2022/08/15 03:42:59;;;;;;;;;17.33;16.00;;;;;22.41;100.00;100060.66;5011943;28;45780;-74
2022/08/15 03:45:26;;;;;;;;;22.00;15.67;;;;;22.44;100.00;100053.59;5023475;28;45558;-74
2022/08/15 03:47:52;;;;;;;;;13.67;13.00;;;;;22.45;100.00;100049.69;5014336;28;45537;-73
2022/08/15 03:50:18;;;;;;;;;15.00;14.00;;;;;22.45;100.00;100055.28;5013976;28;45420;-77
2022/08/15 03:52:54;;;;;;;;;16.67;14.67;;;;;22.46;100.00;100046.59;5029143;28;45451;-78
2022/08/15 03:55:21;;;;;;;;;17.67;16.67;;;;;22.42;100.00;100047.50;5032332;28;45576;-78
2022/08/15 03:57:47;;;;;;;;;16.67;16.67;;;;;22.43;100.00;100054.75;5032635;28;46165;-78
2022/08/15 04:00:15;;;;;;;;;19.67;19.67;;;;;22.38;100.00;100039.75;5049090;28;45460;-77
2022/08/15 04:02:41;;;;;;;;;17.33;17.33;;;;;22.32;100.00;100042.91;5032423;28;45791;-80
2022/08/15 04:05:07;;;;;;;;;17.67;15.00;;;;;22.32;100.00;100046.56;5023889;28;46610;-77
2022/08/15 04:07:35;;;;;;;;;16.67;15.67;;;;;22.30;100.00;100037.59;5030409;28;47303;-79
2022/08/15 04:10:04;;;;;;;;;16.00;15.67;;;;;22.25;100.00;100034.91;5032527;28;45725;-79
2022/08/15 04:12:38;;;;;;;;;17.00;15.33;;;;;22.18;100.00;100035.28;5048918;28;46030;-79
2022/08/15 04:15:08;;;;;;;;;15.00;15.00;;;;;22.15;100.00;100027.50;5028938;28;46121;-79
2022/08/15 04:17:34;;;;;;;;;20.67;19.33;;;;;22.13;100.00;100035.38;5021181;28;47797;-78
2022/08/15 04:19:59;;;;;;;;;16.00;14.67;;;;;22.08;100.00;100032.66;5032696;28;45538;-78
2022/08/15 04:22:35;;;;;;;;;17.67;17.67;;;;;22.03;100.00;100027.16;5025848;28;45316;-77
2022/08/15 04:25:07;;;;;;;;;16.67;14.67;;;;;22.09;100.00;100025.13;5013557;28;45764;-78
2022/08/15 04:27:32;;;;;;;;;20.33;16.33;;;;;22.12;100.00;100025.31;5012685;28;48103;-76
2022/08/15 04:30:00;;;;;;;;;17.00;17.00;;;;;22.10;100.00;100029.56;5013877;28;45527;-79
2022/08/15 04:32:26;;;;;;;;;14.67;14.67;;;;;22.04;100.00;100026.03;5013844;28;45779;-78
2022/08/15 04:34:54;;;;;;;;;16.67;15.67;;;;;21.89;100.00;100006.69;5012453;28;45945;-77
2022/08/15 04:37:21;;;;;;;;;13.67;13.67;;;;;21.99;100.00;100021.34;5014566;28;45972;-78
2022/08/15 04:39:48;;;;;;;;;21.67;16.33;;;;;22.08;100.00;100029.03;5011910;28;45542;-76
2022/08/15 04:42:14;;;;;;;;;15.33;15.33;;;;;22.12;100.00;100025.31;5013162;28;45510;-78
2022/08/15 04:44:40;;;;;;;;;14.67;13.67;;;;;22.16;100.00;100029.16;5011523;28;45764;-77
2022/08/15 04:47:05;;;;;;;;;17.67;17.00;;;;;22.15;100.00;100009.94;5013536;28;45744;-78
2022/08/15 04:49:32;;;;;;;;;15.67;15.00;;;;;22.19;100.00;100019.38;5012946;28;45466;-78
2022/08/15 04:52:23;;;;;;;;;13.67;13.33;;;;;22.30;100.00;100020.84;5022542;28;45665;-73
2022/08/15 04:54:48;;;;;;;;;15.00;14.67;;;;;22.39;100.00;100021.84;5015528;28;47118;-74
2022/08/15 04:57:15;;;;;;;;;10.67;10.67;;;;;22.48;100.00;100015.53;5010277;28;46045;-73
2022/08/15 04:59:41;;;;;;;;;12.33;11.00;;;;;22.55;100.00;100007.59;5012205;28;45712;-79
2022/08/15 05:02:12;;;;;;;;;12.67;12.67;;;;;22.70;100.00;100009.28;5025639;28;45491;-76
2022/08/15 05:04:38;;;;;;;;;13.00;12.33;;;;;22.84;100.00;100012.91;5015292;28;46451;-79
2022/08/15 05:07:04;;;;;;;;;12.67;12.67;;;;;22.96;100.00;100006.78;5012637;28;46102;-78
2022/08/15 05:09:30;;;;;;;;;14.67;13.33;;;;;23.12;100.00;99986.94;5021152;28;45431;-78
2022/08/15 05:11:56;;;;;;;;;13.33;13.33;;;;;23.33;100.00;99993.75;5031168;28;45529;-77
2022/08/15 05:14:21;;;;;;;;;10.33;10.00;;;;;23.59;100.00;99994.03;5032069;28;45735;-79
2022/08/15 05:16:47;;;;;;;;;10.67;8.67;;;;;23.75;100.00;99988.88;5030004;28;46240;-76
2022/08/15 05:19:12;;;;;;;;;19.33;14.33;;;;;23.73;100.00;99971.59;5030846;28;45430;-78
2022/08/15 05:21:39;;;;;;;;;14.00;12.67;;;;;23.92;100.00;99973.41;5029537;28;45861;-78
2022/08/15 05:24:05;;;;;;;;;13.67;12.33;;;;;24.13;100.00;99968.94;5011003;28;45805;-78
2022/08/15 05:26:32;;;;;;;;;10.67;10.33;;;;;24.22;100.00;99959.75;5013555;28;45485;-78
2022/08/15 05:28:59;;;;;;;;;13.00;13.00;;;;;24.33;100.00;99966.75;5031092;28;45481;-78
2022/08/15 05:31:26;;;;;;;;;13.67;13.33;;;;;24.40;100.00;99974.69;5030044;28;45946;-74
2022/08/15 05:33:52;;;;;;;;;13.00;13.00;;;;;24.41;100.00;99954.75;5030979;28;45389;-73
2022/08/15 05:36:18;;;;;;;;;11.00;10.33;;;;;24.70;100.00;99966.63;5030665;28;46191;-72
2022/08/15 05:38:55;;;;;;;;;17.33;15.33;;;;;24.85;100.00;99974.59;5029283;28;45655;-72
2022/08/15 05:41:50;;;;;;;;;15.33;13.00;;;;;25.13;100.00;99966.78;5026394;28;45875;-74
2022/08/15 05:44:25;;;;;;;;;13.33;11.67;;;;;25.50;100.00;99961.75;5025678;28;45778;-72
2022/08/15 05:47:15;;;;;;;;;13.33;13.33;;;;;25.98;100.00;99962.75;5029138;28;47222;-71
2022/08/15 05:49:52;;;;;;;;;15.33;13.00;;;;;26.51;100.00;99959.84;5023807;28;45641;-73
2022/08/15 05:52:26;;;;;;;;;14.67;13.67;;;;;27.04;100.00;99960.50;5011902;28;45824;-72
2022/08/15 05:55:19;;;;;;;;;15.67;13.00;;;;;27.63;100.00;99953.97;5021890;28;45648;-73
2022/08/15 05:58:03;;;;;;;;;11.33;11.33;;;;;28.18;100.00;99954.84;5011031;28;45422;-72
2022/08/15 06:00:29;;;;;;;;;12.00;11.33;;;;;28.49;100.00;99957.16;5011154;28;45934;-73
2022/08/15 06:03:17;;;;;;;;;14.00;12.67;;;;;28.70;100.00;99957.09;5011559;28;45479;-73
2022/08/15 06:05:50;;;;;;;;;10.33;10.33;;;;;28.97;100.00;99962.38;5011741;28;46090;-73
2022/08/15 06:08:29;;;;;;;;;14.67;12.33;;;;;29.29;100.00;99969.09;5012067;28;46676;-73
2022/08/15 06:11:03;;;;;;;;;11.00;10.33;;;;;29.61;100.00;99966.44;5000371;28;45630;-74
2022/08/15 06:13:44;;;;;;;;;13.67;12.67;;;;;30.07;100.00;99967.03;5013368;28;45854;-73
2022/08/15 06:16:31;;;;;;;;;10.67;10.67;;;;;30.62;100.00;99966.53;5013816;28;46345;-75
2022/08/15 06:19:19;;;;;;;;;9.00;8.00;;;;;31.29;92.98;99963.75;5014717;28;46151;-73
2022/08/15 06:21:57;;;;;;;;;12.33;10.67;;;;;32.00;83.66;99969.34;5015009;28;45957;-74
2022/08/15 06:24:47;;;;;;;;;13.00;10.67;;;;;32.64;78.19;99962.50;5015002;28;45664;-75
2022/08/15 06:27:37;;;;;;;;;10.67;10.67;;;;;33.26;72.60;99956.66;5004427;28;45819;-74
2022/08/15 06:30:17;;;;;;;;;12.67;11.67;;;;;33.45;67.62;99955.72;5015736;28;45332;-73
2022/08/15 06:33:15;;;;;;;;;8.33;8.33;;;;;33.72;66.17;99938.59;5015897;28;45795;-76
2022/08/15 06:35:50;;;;;;;;;9.67;9.00;;;;;33.96;63.40;99952.34;4982743;28;45524;-74
2022/08/15 06:38:19;;;;;;;;;8.67;8.67;;;;;34.22;61.04;99947.72;5013960;28;45411;-78
2022/08/15 06:40:58;;;;;;;;;8.00;8.00;;;;;34.06;59.97;99947.97;5013219;28;48033;-77
2022/08/15 06:43:23;;;;;;;;;9.33;9.33;;;;;33.57;59.27;99943.28;5020830;28;45775;-78
2022/08/15 06:45:51;;;;;;;;;11.33;9.67;;;;;33.27;60.07;99924.19;5031690;28;45698;-79
2022/08/15 06:48:24;;;;;;;;;13.33;13.00;;;;;33.30;60.37;99945.34;5026110;28;45467;-78
2022/08/15 06:50:56;;;;;;;;;11.33;9.67;;;;;32.98;61.77;99943.63;5014060;28;45812;-77
2022/08/15 06:54:00;;;;;;;;;12.00;11.00;;;;;32.97;63.95;99950.50;5014286;28;45483;-78
2022/08/15 06:56:30;;;;;;;;;15.00;14.00;;;;;32.65;63.40;99947.06;4952596;28;45611;-77
2022/08/15 06:59:05;;;;;;;;;10.00;10.00;;;;;32.96;63.39;99946.00;4951509;28;45841;-79
2022/08/15 07:02:01;;;;;;;;;10.67;10.67;;;;;33.58;60.38;99944.91;4987779;28;45487;-79
2022/08/15 07:04:44;;;;;;;;;11.00;8.33;;;;;34.20;57.25;99944.47;5013674;28;45430;-78
2022/08/15 07:07:17;;;;;;;;;11.67;10.67;;;;;34.60;55.76;99953.44;5004669;28;45903;-74
2022/08/15 07:10:00;;;;;;;;;11.00;10.00;;;;;34.84;53.74;99929.28;5009135;28;45800;-73
2022/08/15 07:12:45;;;;;;;;;9.00;9.00;;;;;35.33;51.72;99953.66;5008531;28;45651;-75
2022/08/15 07:15:36;;;;;;;;;12.00;10.33;;;;;35.74;50.16;99952.66;5004665;28;45825;-74
2022/08/15 07:18:08;;;;;;;;;8.00;8.00;;;;;36.25;48.24;99953.66;5009509;28;45907;-75
2022/08/15 07:20:35;;;;;;;;;10.00;9.00;;;;;36.57;46.05;99944.34;5009016;28;46495;-75
2022/08/15 07:23:22;;;;;;;;;9.33;9.33;;;;;37.17;45.78;99959.88;5006432;28;46182;-76
2022/08/15 07:25:51;;;;;;;;;13.00;10.33;;;;;37.90;43.66;99954.81;4999832;28;45859;-74
2022/08/15 07:28:20;;;;;;;;;10.33;10.00;;;;;38.44;41.08;99954.53;5004106;28;45837;-74
2022/08/15 07:30:52;;;;;;;;;13.00;11.00;;;;;38.73;39.97;99963.78;5008029;28;45878;-74
2022/08/15 07:33:39;;;;;;;;;10.00;8.33;;;;;38.78;39.48;99945.31;5008438;28;45667;-74
2022/08/15 07:36:24;;;;;;;;;11.67;10.67;;;;;39.22;38.44;99960.88;4998145;28;45533;-76
2022/08/15 07:38:51;;;;;;;;;11.67;11.67;;;;;39.64;37.32;99960.88;5008567;28;45899;-74
2022/08/15 07:41:22;;;;;;;;;9.00;9.00;;;;;39.93;36.08;99958.47;5007316;28;45620;-72
2022/08/15 07:43:50;;;;;;;;;9.67;9.67;;;;;40.03;35.73;99950.97;5022432;28;47372;-73
2022/08/15 07:46:34;;;;;;;;;8.00;7.33;;;;;40.19;35.85;99950.34;5005596;28;45906;-73
2022/08/15 07:49:16;;;;;;;;;9.00;8.00;;;;;40.28;35.22;99956.34;5004106;28;46013;-72
2022/08/15 07:51:47;;;;;;;;;9.67;8.33;;;;;40.68;33.96;99953.72;5003282;28;45882;-73
2022/08/15 07:54:31;;;;;;;;;9.33;7.33;;;;;39.39;35.78;99950.47;5000925;28;46350;-73
2022/08/15 07:57:00;;;;;;;;;7.67;7.67;;;;;39.52;35.21;99945.81;5001455;28;45560;-75
2022/08/15 07:59:36;;;;;;;;;8.00;6.67;;;;;40.05;34.16;99951.38;5008174;28;45847;-73
2022/08/15 08:02:19;;;;;;;;;7.67;7.67;;;;;40.64;32.84;99952.16;5008951;28;45958;-73
2022/08/15 08:04:45;;;;;;;;;8.67;8.00;;;;;40.90;32.13;99951.31;4999360;28;46234;-74
2022/08/15 08:07:27;;;;;;;;;7.00;7.00;;;;;41.12;31.47;99948.03;5012352;28;45736;-73
2022/08/15 08:10:12;;;;;;;;;5.67;5.67;;;;;41.19;30.93;99953.66;5016736;28;45779;-73
2022/08/15 08:12:53;;;;;;;;;6.00;6.00;;;;;41.00;30.63;99958.13;5009984;28;45498;-74
2022/08/15 08:15:47;;;;;;;;;4.67;4.67;;;;;40.42;31.66;99952.44;5012495;28;45806;-73
2022/08/15 08:18:37;;;;;;;;;7.00;7.00;;;;;39.39;33.06;99953.34;5011530;28;45643;-75
2022/08/15 08:21:11;;;;;;;;;8.00;8.00;;;;;37.98;34.34;99945.78;5031007;28;45868;-73
2022/08/15 08:23:49;;;;;;;;;7.67;7.67;;;;;36.98;36.08;99946.84;5015632;28;45570;-73
2022/08/15 08:26:33;;;;;;;;;7.00;7.00;;;;;36.06;37.38;99954.81;5001705;28;45805;-77
2022/08/15 08:28:59;;;;;;;;;8.00;7.00;;;;;35.09;40.05;99951.41;5014165;28;45591;-78
2022/08/15 08:31:36;;;;;;;;;11.00;7.67;;;;;34.36;41.55;99951.97;4997800;28;45483;-78
2022/08/15 08:34:19;;;;;;;;;9.67;9.67;;;;;33.83;43.33;99944.44;5021358;28;45690;-79
2022/08/15 08:37:28;;;;;;;;;8.33;8.00;;;;;34.13;43.77;99955.78;5031829;28;45426;-79
2022/08/15 08:39:53;;;;;;;;;7.00;7.00;;;;;35.30;42.03;99954.47;5032618;28;45345;-79
2022/08/15 08:42:39;;;;;;;;;6.67;6.67;;;;;36.42;39.64;99959.84;5020322;28;45905;-79
2022/08/15 08:45:10;;;;;;;;;6.33;6.33;;;;;36.83;38.89;99945.19;5009578;28;45675;-79
2022/08/15 08:48:00;;;;;;;;;8.33;6.33;;;;;37.68;37.85;99942.59;5029043;28;45776;-79
2022/08/15 08:50:48;;;;;;;;;6.00;6.00;;;;;38.56;35.45;99947.50;5022980;28;45892;-79
2022/08/15 08:53:17;;;;;;;;;7.67;7.33;;;;;37.14;36.48;99954.97;5010113;28;45862;-78
2022/08/15 08:55:51;;;;;;;;;5.00;5.00;;;;;36.28;38.38;99955.75;5026900;28;45589;-79
2022/08/15 08:58:26;;;;;;;;;6.00;6.00;;;;;37.23;37.40;99960.28;5016243;28;45692;-77
2022/08/15 09:00:53;;;;;;;;;8.33;7.33;;;;;37.67;36.13;99952.41;5020401;28;45625;-77
2022/08/15 09:03:25;;;;;;;;;8.25;6.25;;;;;37.15;36.54;99964.38;5017922;28;45371;-79
2022/08/15 09:05:54;;;;;;;;;5.50;5.50;;;;;36.17;37.64;99957.72;5009381;28;46545;-79
2022/08/15 09:08:30;;;;;;;;;7.33;6.33;;;;;35.33;39.46;99967.91;5009417;28;48215;-78
2022/08/15 09:11:02;;;;;;;;;6.33;6.33;;;;;35.26;39.87;99959.28;5012611;28;45748;-80
2022/08/15 09:13:34;;;;;;;;;7.33;6.33;;;;;35.21;40.96;99970.22;5012620;28;45379;-78
2022/08/15 09:16:25;;;;;;;;;7.00;6.00;;;;;34.79;41.58;99946.72;5011914;28;45726;-78
2022/08/15 09:19:09;;;;;;;;;6.67;6.67;;;;;34.12;42.64;99976.91;4999555;28;46994;-80
2022/08/15 09:21:35;;;;;;;;;7.33;5.67;;;;;33.73;44.26;99966.69;5011715;28;45400;-78
2022/08/15 09:24:04;;;;;;;;;6.67;6.67;;;;;33.27;45.52;99949.75;5012283;28;45380;-78
2022/08/15 09:27:01;;;;;;;;;10.00;8.00;;;;;33.62;45.09;99962.84;5011970;28;45534;-80
2022/08/15 09:29:33;;;;;;;;;8.00;6.67;;;;;34.42;44.25;99956.13;5011110;28;45463;-81
2022/08/15 09:32:01;;;;;;;;;9.67;8.67;;;;;34.19;43.59;99964.78;5010910;28;45820;-80
2022/08/15 09:34:46;;;;;;;;;6.33;6.33;;;;;33.67;44.53;99953.16;5011138;28;45870;-74
2022/08/15 09:37:42;;;;;;;;;6.67;6.67;;;;;33.26;45.47;99959.50;5010495;28;45747;-72
2022/08/15 09:40:19;;;;;;;;;6.25;6.25;;;;;33.45;45.35;99967.06;5010594;28;45644;-73
2022/08/15 09:42:59;;;;;;;;;5.33;5.33;;;;;33.48;45.11;99963.47;5008210;28;45774;-73
2022/08/15 09:46:06;;;;;;;;;7.00;7.00;;;;;33.88;45.06;99967.69;5000304;28;45657;-76
2022/08/15 09:49:00;;;;;;;;;6.00;6.00;;;;;33.77;45.73;99961.88;5000680;28;46107;-76
2022/08/15 09:51:58;;;;;;;;;6.00;6.00;;;;;33.71;45.97;99963.34;5001810;28;47408;-75
2022/08/15 09:54:29;;;;;;;;;7.00;7.00;;;;;33.86;46.11;99961.53;5008372;28;45467;-75
2022/08/15 09:57:21;;;;;;;;;8.00;6.00;;;;;34.94;43.53;99959.03;5006234;28;45598;-79
2022/08/15 10:00:16;;;;;;;;;4.33;3.00;;;;;34.87;42.76;99954.13;5007605;28;45623;-75
2022/08/15 10:02:44;;;;;;;;;6.00;6.00;;;;;34.37;42.95;99953.63;5009572;28;46643;-75
2022/08/15 10:05:42;;;;;;;;;7.00;7.00;;;;;33.72;43.99;99949.97;5011855;28;45690;-76
2022/08/15 10:08:09;;;;;;;;;7.00;7.00;;;;;33.13;46.03;99941.81;5008522;28;45718;-81
2022/08/15 10:10:34;;;;;;;;;9.00;9.00;;;;;32.88;47.69;99956.44;5009612;28;45440;-79
2022/08/15 10:13:26;;;;;;;;;8.33;7.33;;;;;32.41;48.80;99949.09;5012043;28;45569;-80
2022/08/15 10:15:53;;;;;;;;;7.33;6.33;;;;;31.99;50.10;99945.03;5006388;28;45840;-79
2022/08/15 10:18:21;;;;;;;;;8.33;8.00;;;;;31.64;51.92;99951.59;5008994;28;45768;-79
2022/08/15 10:20:51;;;;;;;;;7.00;7.00;;;;;31.26;53.58;99946.66;5005450;28;45951;-79
2022/08/15 10:23:24;;;;;;;;;7.67;6.33;;;;;30.94;56.17;99950.31;5003598;28;46414;-78
2022/08/15 10:26:08;;;;;;;;;8.33;7.33;;;;;30.72;57.60;99951.81;5005939;28;45856;-79
2022/08/15 10:28:36;;;;;;;;;7.33;6.00;;;;;30.48;60.96;99952.81;5012421;28;45803;-81
2022/08/15 10:31:04;;;;;;;;;7.00;7.00;;;;;30.23;64.87;99963.44;5008197;28;45681;-78
2022/08/15 10:33:38;;;;;;;;;6.33;6.33;;;;;29.94;68.78;99951.28;5011171;28;47416;-81
2022/08/15 10:36:13;;;;;;;;;7.00;5.00;;;;;29.67;72.54;99948.09;5008832;28;45597;-80
2022/08/15 10:38:50;;;;;;;;;4.75;4.75;;;;;29.23;79.88;99947.94;5013927;28;45800;-79
2022/08/15 10:41:23;;;;;;;;;4.25;4.25;;;;;28.72;84.62;99936.19;5009900;28;45857;-80
2022/08/15 10:44:01;;;;;;;;;6.67;6.67;;;;;28.56;89.48;99961.41;5025507;28;47707;-79
2022/08/15 10:46:40;;;;;;;;;2.00;1.00;;;;;28.53;90.62;99960.09;5011247;28;46030;-79
2022/08/15 10:49:21;;;;;;;;;2.75;2.75;;;;;28.49;93.21;99959.16;5003577;28;45577;-80
2022/08/15 10:52:18;;;;;;;;;5.33;5.33;;;;;28.25;95.76;99968.34;5011735;28;45951;-78
2022/08/15 10:55:17;;;;;;;;;4.67;4.67;;;;;28.25;96.52;99974.84;5005751;28;46014;-81
2022/08/15 10:58:38;;;;;;;;;4.33;4.00;;;;;27.96;99.71;99956.88;5008171;28;46022;-79
2022/08/15 11:01:17;;;;;;;;;5.00;4.00;;;;;27.77;100.00;99951.72;4987512;28;45908;-81
2022/08/15 11:04:05;;;;;;;;;4.00;4.00;;;;;27.86;100.00;99962.91;5004220;28;46013;-80
2022/08/15 11:06:37;;;;;;;;;6.00;5.00;;;;;27.84;100.00;99968.06;5014717;28;46006;-80
2022/08/15 11:09:18;;;;;;;;;5.50;5.50;;;;;27.54;100.00;99954.03;5009470;28;45799;-82
2022/08/15 11:11:57;;;;;;;;;5.75;5.75;;;;;27.35;100.00;99953.69;5002620;28;45956;-79
2022/08/15 11:14:39;;;;;;;;;6.50;5.25;;;;;27.30;100.00;99963.94;5002495;28;45869;-79
2022/08/15 11:17:12;;;;;;;;;6.00;6.00;;;;;27.29;100.00;99973.59;5007780;28;45598;-80
2022/08/15 11:19:43;;;;;;;;;3.25;3.25;;;;;27.20;100.00;99961.56;5004913;28;45874;-80
2022/08/15 11:22:17;;;;;;;;;4.50;4.50;;;;;27.08;100.00;99964.25;5007270;28;46084;-79
2022/08/15 11:24:54;;;;;;;;;6.00;3.00;;;;;27.19;100.00;99979.59;5007845;28;46154;-81
2022/08/15 11:27:24;;;;;;;;;4.67;4.67;;;;;27.18;100.00;99979.94;5014731;28;46147;-79
2022/08/15 11:29:57;;;;;;;;;5.00;5.00;;;;;27.26;100.00;99973.44;5010196;28;45495;-81
2022/08/15 11:32:40;;;;;;;;;7.00;4.67;;;;;27.23;100.00;99980.59;5009665;28;45403;-82
2022/08/15 11:35:22;;;;;;;;;5.00;5.00;;;;;27.16;100.00;99980.28;5009907;28;45601;-81
2022/08/15 11:37:47;;;;;;;;;4.33;4.33;;;;;27.08;100.00;99978.34;4999481;28;45846;-81
2022/08/15 11:40:37;;;;;;;;;6.67;4.33;;;;;27.18;100.00;99969.50;5013624;28;45813;-80
2022/08/15 11:43:05;;;;;;;;;5.00;5.00;;;;;27.44;100.00;99985.44;5012346;28;45446;-81
2022/08/15 11:45:35;;;;;;;;;5.33;5.33;;;;;27.39;100.00;99986.47;5007105;28;46225;-77
2022/08/15 11:48:09;;;;;;;;;4.00;4.00;;;;;27.50;100.00;99989.72;5005724;28;46942;-77
2022/08/15 11:50:39;;;;;;;;;4.00;4.00;;;;;27.64;100.00;99973.34;5003609;28;45619;-78